Patcona II — WDC2170 — position and weather

sailwx.info

Track history (hours):
 
Tides and Currents Weather Stations Pressure Air Temp Water Temp Dewpoint Dewpoint Depression Visibility Wind Speed Wind Dir Waves Ship Positions

Patcona II

Owner: Connolly-Pacific Co, long beach, CA. More information available from US FCC via Universal Licensing System and Coast Guard Vessel Documentation Center.

Last reported at 2016-Aug-27 02:20 UTC. Time now 2016-Aug-27 11:39 UTC.
Position N 33°34' W 118°15'.

; draft 9 m.

Type: Towing. MMSI: 366988960.

Date/timePositionNaut miles runAvg speedWind from/ knotsBaromVisibWave heightAir tempDewpointWater temp
2016-Aug-27 02:20N 33°34' W 118°15'16 2.5
2016-Aug-26 20:11N 33°19' W 118°18'0 0.0
2016-Aug-26 19:31N 33°19' W 118°18'25 4.2
2016-Aug-26 13:31N 33°44' W 118°14'2 1.6
2016-Aug-26 12:06N 33°46' W 118°13'0 0.0
2016-Aug-26 11:32N 33°46' W 118°13'0 0.0
2016-Aug-26 10:33N 33°46' W 118°13'0 0.0
2016-Aug-26 09:30N 33°46' W 118°13'0 0.0
2016-Aug-26 08:32N 33°46' W 118°13'0 0.5
2016-Aug-26 07:34N 33°46' W 118°13'4 3.1
2016-Aug-26 06:22N 33°42' W 118°11'10 5.4
2016-Aug-26 04:33N 33°33' W 118°13'6 5.7
2016-Aug-26 03:33N 33°27' W 118°15'6 6.0
2016-Aug-26 02:30N 33°21' W 118°17'2 1.8
2016-Aug-26 01:12N 33°19' W 118°18'0 0.0
2016-Aug-26 00:18N 33°19' W 118°18'5 1.5
2016-Aug-25 21:11N 33°24' W 118°16'1207331.9
2016-Aug-25 17:33N 29°44' W 095°03'1207181000.1
2016-Aug-25 17:33N 33°46' W 118°13'0 0.0
2016-Aug-25 16:33N 33°46' W 118°13'0 0.0
2016-Aug-25 15:15N 33°46' W 118°13'0 0.0
2016-Aug-25 14:26N 33°46' W 118°13'0 0.0
2016-Aug-25 13:32N 33°46' W 118°13'12071235.1
2016-Aug-25 12:33N 29°44' W 095°03'120710752.4
2016-Aug-25 12:27N 33°46' W 118°13'0 0.0
2016-Aug-25 11:34N 33°46' W 118°13'1207620572.1
2016-Aug-25 11:33N 29°44' W 095°03'0 0.0
2016-Aug-25 10:33N 29°44' W 095°03'12071086001.1
2016-Aug-25 10:33N 33°46' W 118°13'12071207.7
2016-Aug-25 09:33N 29°44' W 095°03'12071085994.5
2016-Aug-25 09:33N 33°46' W 118°13'12041205.6
2016-Aug-25 08:33N 29°46' W 095°05'12044455.5
2016-Aug-25 08:17N 33°46' W 118°13'0 0.0
2016-Aug-25 07:33N 33°46' W 118°13'0 0.0
2016-Aug-25 06:27N 33°46' W 118°13'0 0.0
2016-Aug-25 04:32N 33°46' W 118°13'0 0.0
2016-Aug-25 03:33N 33°46' W 118°13'0 0.0
2016-Aug-25 02:34N 33°46' W 118°13'0 0.0
2016-Aug-25 01:33N 33°46' W 118°13'0 0.0
2016-Aug-25 00:33N 33°46' W 118°13'0 0.0
2016-Aug-24 23:34N 33°46' W 118°13'0 0.0
2016-Aug-24 22:33N 33°46' W 118°13'0 0.0
2016-Aug-24 21:33N 33°46' W 118°13'0 0.0
2016-Aug-24 20:33N 33°46' W 118°13'120018387.2
2016-Aug-24 20:29N 29°45' W 095°10'0 0.4
2016-Aug-24 19:32N 29°45' W 095°10'120132253.9
2016-Aug-24 19:30N 33°46' W 118°13'12011268.6
2016-Aug-24 18:33N 29°45' W 095°10'1201180083.3
2016-Aug-24 18:33N 33°46' W 118°13'12011198.2
2016-Aug-24 17:33N 29°45' W 095°10'1201139419.4
2016-Aug-24 17:32N 33°46' W 118°13'12011221.9
2016-Aug-24 16:33N 29°45' W 095°10'120112140.5
2016-Aug-24 16:28N 33°46' W 118°13'0 0.0
2016-Aug-24 15:31N 33°46' W 118°13'0 0.0
2016-Aug-24 14:32N 33°46' W 118°13'0 0.0
2016-Aug-24 13:29N 33°46' W 118°13'0 0.0
2016-Aug-24 12:33N 33°46' W 118°13'0 0.0
2016-Aug-24 11:33N 33°46' W 118°13'0 0.0
2016-Aug-24 10:33N 33°46' W 118°13'0 0.0
2016-Aug-24 09:33N 33°46' W 118°13'0 0.0
2016-Aug-24 08:33N 33°46' W 118°13'0 0.0
2016-Aug-24 07:33N 33°46' W 118°13'0 0.0
2016-Aug-24 06:33N 33°46' W 118°13'0 0.0
2016-Aug-24 04:33N 33°46' W 118°13'0 0.0
2016-Aug-24 03:33N 33°46' W 118°13'0 0.0
2016-Aug-24 02:33N 33°46' W 118°13'0 0.0
2016-Aug-24 01:33N 33°46' W 118°13'0 0.0
2016-Aug-24 00:33N 33°46' W 118°13'0 0.0
2016-Aug-23 23:33N 33°46' W 118°13'0 0.0
2016-Aug-23 22:33N 33°46' W 118°13'0 0.0
2016-Aug-23 21:33N 33°46' W 118°13'0 0.0
2016-Aug-23 20:33N 33°46' W 118°13'0 0.0
2016-Aug-23 19:33N 33°46' W 118°13'0 0.0
2016-Aug-23 18:33N 33°46' W 118°13'0 0.0
2016-Aug-23 17:33N 33°46' W 118°13'0 0.0
2016-Aug-23 16:33N 33°46' W 118°13'0 0.0
2016-Aug-23 15:33N 33°46' W 118°13'0 0.0
2016-Aug-23 14:33N 33°46' W 118°13'0 0.0
2016-Aug-23 13:33N 33°46' W 118°13'0 0.0
2016-Aug-23 12:33N 33°46' W 118°13'0 0.0
2016-Aug-23 11:28N 33°46' W 118°13'0 0.0
2016-Aug-23 10:33N 33°46' W 118°13'0 0.0
2016-Aug-23 09:33N 33°46' W 118°13'0 0.0
2016-Aug-23 08:33N 33°46' W 118°13'0 0.0
2016-Aug-23 07:33N 33°46' W 118°13'0 0.0
2016-Aug-23 06:31N 33°46' W 118°13'0 0.0
2016-Aug-23 05:33N 33°46' W 118°13'0 0.0
2016-Aug-23 04:33N 33°46' W 118°13'0 0.0
2016-Aug-23 03:33N 33°46' W 118°13'0 0.0
2016-Aug-23 02:33N 33°46' W 118°13'0 0.0
2016-Aug-23 01:33N 33°46' W 118°13'0 0.0
2016-Aug-23 00:33N 33°46' W 118°13'0 0.0
2016-Aug-22 23:33N 33°46' W 118°13'0 0.0
2016-Aug-22 22:33N 33°46' W 118°13'0 0.0
2016-Aug-22 21:33N 33°46' W 118°13'0 0.0
2016-Aug-22 20:33N 33°46' W 118°13'0 0.0
2016-Aug-22 19:33N 33°46' W 118°13'0 0.0
2016-Aug-22 18:33N 33°46' W 118°13'0 0.0
2016-Aug-22 17:33N 33°46' W 118°13'0 0.0
2016-Aug-22 16:33N 33°46' W 118°13'0 0.0
2016-Aug-22 15:33N 33°46' W 118°13'0 0.0
2016-Aug-22 14:33N 33°46' W 118°13'0 0.0
2016-Aug-22 13:33N 33°46' W 118°13'0 0.0
2016-Aug-22 12:33N 33°46' W 118°13'0 0.0
2016-Aug-22 11:33N 33°46' W 118°13'0 0.0
2016-Aug-22 10:33N 33°46' W 118°13'0 0.0
2016-Aug-22 09:33N 33°46' W 118°13'0 0.0
2016-Aug-22 08:33N 33°46' W 118°13'0 0.0
2016-Aug-22 07:33N 33°46' W 118°13'0 0.0
2016-Aug-22 06:33N 33°46' W 118°13'0 0.0
2016-Aug-22 05:33N 33°46' W 118°13'0 0.0
2016-Aug-22 04:33N 33°46' W 118°13'0 0.0
2016-Aug-22 03:33N 33°46' W 118°13'0 0.0
2016-Aug-22 02:32N 33°46' W 118°13'0 0.0
2016-Aug-22 01:33N 33°46' W 118°13'0 0.0
2016-Aug-22 00:33N 33°46' W 118°13'0 0.0
2016-Aug-21 23:33N 33°46' W 118°13'0 0.0
2016-Aug-21 22:33N 33°46' W 118°13'0 0.0
2016-Aug-21 21:33N 33°46' W 118°13'0 0.0
2016-Aug-21 20:32N 33°46' W 118°13'0 0.0
2016-Aug-21 19:33N 33°46' W 118°13'0 0.0
2016-Aug-21 18:33N 33°46' W 118°13'0 0.0
2016-Aug-21 17:33N 33°46' W 118°13'0 0.0
2016-Aug-21 16:33N 33°46' W 118°13'0 0.0
2016-Aug-21 15:33N 33°46' W 118°13'0 0.0
2016-Aug-21 14:33N 33°46' W 118°13'0 0.0
2016-Aug-21 13:23N 33°46' W 118°13'0 0.0
2016-Aug-21 12:33N 33°46' W 118°13'0 0.0
2016-Aug-21 11:33N 33°46' W 118°13'0 0.0
2016-Aug-21 10:33N 33°46' W 118°13'0 0.0
2016-Aug-21 09:33N 33°46' W 118°13'0 0.0
2016-Aug-21 08:33N 33°46' W 118°13'0 0.0
2016-Aug-21 07:33N 33°46' W 118°13'0 0.0
2016-Aug-21 06:33N 33°46' W 118°13'0 0.0
2016-Aug-21 05:33N 33°46' W 118°13'0 0.0
2016-Aug-21 04:33N 33°46' W 118°13'0 0.0
2016-Aug-21 03:33N 33°46' W 118°13'0 0.0
2016-Aug-21 02:33N 33°46' W 118°13'0 0.0
2016-Aug-21 01:34N 33°46' W 118°13'0 0.0
2016-Aug-21 00:33N 33°46' W 118°13'0 0.0
2016-Aug-20 23:33N 33°46' W 118°13'0 0.0
2016-Aug-20 22:33N 33°46' W 118°13'0 0.0
2016-Aug-20 21:30N 33°46' W 118°13'0 0.0
2016-Aug-20 20:33N 33°46' W 118°13'0 0.0
2016-Aug-20 19:33N 33°46' W 118°13'0 0.0
2016-Aug-20 18:31N 33°46' W 118°13'0 0.0
2016-Aug-20 17:33N 33°46' W 118°13'0 0.0
2016-Aug-20 16:33N 33°46' W 118°13'0 0.0
2016-Aug-20 15:33N 33°46' W 118°13'0 0.0
2016-Aug-20 14:33N 33°46' W 118°13'0 0.0
2016-Aug-20 13:33N 33°46' W 118°13'0 0.0
2016-Aug-20 12:32N 33°46' W 118°13'0 0.0
2016-Aug-20 11:33N 33°46' W 118°13'0 0.0
2016-Aug-20 10:32N 33°46' W 118°13'0 0.0
2016-Aug-20 09:33N 33°46' W 118°13'0 0.0
2016-Aug-20 08:33N 33°46' W 118°13'0 0.0
2016-Aug-20 07:28N 33°46' W 118°13'0 0.0
2016-Aug-20 06:33N 33°46' W 118°13'0 0.0
2016-Aug-20 05:26N 33°46' W 118°13'0 0.0
2016-Aug-20 04:14N 33°46' W 118°13'0 0.0
2016-Aug-20 03:26N 33°46' W 118°13'0 0.0
2016-Aug-20 02:33N 33°46' W 118°13'0 0.0
2016-Aug-20 01:32N 33°46' W 118°13'0 0.0
2016-Aug-20 00:33N 33°46' W 118°13'0 0.0
2016-Aug-19 23:33N 33°46' W 118°13'0 0.0
2016-Aug-19 22:33N 33°46' W 118°13'0 0.0
2016-Aug-19 21:33N 33°46' W 118°13'0 0.0
2016-Aug-19 20:33N 33°46' W 118°13'0 0.0
2016-Aug-19 19:33N 33°46' W 118°13'0 0.0
2016-Aug-19 18:33N 33°46' W 118°13'0 0.0
2016-Aug-19 17:33N 33°46' W 118°13'0 0.0
2016-Aug-19 16:33N 33°46' W 118°13'0 0.0
2016-Aug-19 15:33N 33°46' W 118°13'1203123768.2
2016-Aug-19 15:33N 29°47' W 095°06'12031215.1
2016-Aug-19 14:33N 33°46' W 118°13'1203270742.9
2016-Aug-19 14:33N 29°47' W 095°06'12031208.3
2016-Aug-19 13:33N 33°46' W 118°13'120367685.7
2016-Aug-19 13:32N 29°47' W 095°06'12031225.1
2016-Aug-19 12:33N 33°46' W 118°13'1203288792.4
2016-Aug-19 12:33N 29°47' W 095°06'12031208.7
2016-Aug-19 11:33N 33°46' W 118°13'120319963.1
2016-Aug-19 11:30N 29°47' W 095°06'0 0.0
2016-Aug-19 10:34N 29°47' W 095°06'1203866372.7
2016-Aug-19 10:33N 33°46' W 118°13'12031205.3
2016-Aug-19 09:34N 29°47' W 095°06'1203866372.7
2016-Aug-19 09:33N 33°46' W 118°13'0 0.0
2016-Aug-19 08:33N 33°46' W 118°13'1203721977.3
2016-Aug-19 08:33N 29°47' W 095°06'12031205.0
2016-Aug-19 07:33N 33°46' W 118°13'120331851.9
2016-Aug-19 07:31N 29°47' W 095°06'0 0.0
2016-Aug-19 06:34N 29°47' W 095°06'1203866372.7
2016-Aug-19 06:33N 33°46' W 118°13'12031198.3
2016-Aug-19 05:33N 29°47' W 095°06'120340866.6
2016-Aug-19 05:31N 33°46' W 118°13'0 0.0
2016-Aug-19 04:33N 33°46' W 118°13'120377354.7
2016-Aug-19 04:32N 29°47' W 095°06'12031228.9
2016-Aug-19 03:33N 33°46' W 118°13'1203288790.9
2016-Aug-19 03:33N 29°47' W 095°06'12031209.0
2016-Aug-19 02:33N 33°46' W 118°13'1203120329.5
2016-Aug-19 02:33N 29°47' W 095°06'12031215.1
2016-Aug-19 01:33N 33°46' W 118°13'1203180494.3
2016-Aug-19 01:33N 29°47' W 095°06'12031205.0
2016-Aug-19 00:33N 33°46' W 118°13'120337343.7
2016-Aug-19 00:31N 29°47' W 095°06'0 0.0
2016-Aug-18 23:33N 29°47' W 095°06'1203173274.5
2016-Aug-18 23:33N 33°46' W 118°13'0 0.0
2016-Aug-18 22:33N 33°46' W 118°13'120350963.1
2016-Aug-18 22:32N 29°47' W 095°06'12031232.4
2016-Aug-18 21:33N 33°46' W 118°13'120338000.0
2016-Aug-18 21:31N 29°47' W 095°06'12031249.9
2016-Aug-18 20:34N 33°46' W 118°13'0 0.0
2016-Aug-18 19:33N 33°46' W 118°13'12035126.8
2016-Aug-18 19:19N 29°46' W 095°06'0 0.2
2016-Aug-18 18:33N 29°47' W 095°06'120357000.6
2016-Aug-18 18:32N 33°46' W 118°13'0 0.0
2016-Aug-18 17:32N 33°46' W 118°13'1204131348.5
2016-Aug-18 17:32N 29°46' W 095°05'12041236.7
2016-Aug-18 16:33N 33°46' W 118°13'1204866540.7
2016-Aug-18 16:33N 29°45' W 095°06'12041185.4
2016-Aug-18 15:32N 33°46' W 118°13'0 0.0
2016-Aug-18 14:33N 33°46' W 118°13'0 0.0
2016-Aug-18 13:33N 33°46' W 118°13'0 0.0
2016-Aug-18 12:33N 33°46' W 118°13'0 0.0
2016-Aug-18 11:33N 33°46' W 118°13'0 0.0
2016-Aug-18 10:33N 33°46' W 118°13'0 0.0
2016-Aug-18 09:33N 33°46' W 118°13'0 0.0
2016-Aug-18 08:33N 33°46' W 118°13'0 0.0
2016-Aug-18 07:34N 33°46' W 118°13'0 0.0
2016-Aug-18 06:31N 33°46' W 118°13'0 0.0
2016-Aug-18 05:34N 33°46' W 118°13'0 0.0
2016-Aug-18 04:33N 33°46' W 118°13'0 0.0
2016-Aug-18 03:33N 33°46' W 118°13'0 0.0
2016-Aug-18 02:33N 33°46' W 118°13'0 0.0
2016-Aug-18 01:33N 33°46' W 118°13'0 0.0
2016-Aug-18 00:33N 33°46' W 118°13'0 0.0
2016-Aug-17 23:33N 33°46' W 118°13'0 0.0
2016-Aug-17 22:33N 33°46' W 118°13'0 0.0
2016-Aug-17 21:33N 33°46' W 118°13'0 0.0
2016-Aug-17 20:33N 33°46' W 118°13'0 0.0
2016-Aug-17 19:33N 33°46' W 118°13'0 0.0
2016-Aug-17 18:33N 33°46' W 118°13'0 0.0
2016-Aug-17 17:33N 33°46' W 118°13'0 0.0
2016-Aug-17 16:33N 33°46' W 118°13'0 0.0
2016-Aug-17 15:33N 33°46' W 118°13'0 0.0
2016-Aug-17 14:33N 33°46' W 118°13'0 0.0
2016-Aug-17 13:33N 33°46' W 118°13'0 0.0
2016-Aug-17 12:33N 33°46' W 118°13'0 0.0
2016-Aug-17 11:33N 33°46' W 118°13'0 0.0
2016-Aug-17 10:33N 33°46' W 118°13'0 0.0
2016-Aug-17 09:33N 33°46' W 118°13'0 0.0
2016-Aug-17 08:33N 33°46' W 118°13'0 0.0
2016-Aug-17 07:33N 33°46' W 118°13'0 0.0
2016-Aug-17 06:33N 33°46' W 118°13'0 0.0
2016-Aug-17 05:34N 33°46' W 118°13'0 0.0
2016-Aug-17 04:12N 33°46' W 118°13'0 0.0
2016-Aug-17 03:33N 33°46' W 118°13'0 0.0
2016-Aug-17 02:33N 33°46' W 118°13'  
Track history (hours):
 
Tides and Currents Weather Stations Pressure Air Temp Water Temp Dewpoint Dewpoint Depression Visibility Wind Speed Wind Dir Waves Ship Positions

Patcona II

Owner: Connolly-Pacific Co, long beach, CA. More information available from US FCC via Universal Licensing System and Coast Guard Vessel Documentation Center.

Last reported at 2016-Aug-27 02:20 UTC. Time now 2016-Aug-27 11:39 UTC.
Position N 33°34' W 118°15'.

; draft 9 m.

Type: Towing. MMSI: 366988960.

Date/timePositionNaut miles runAvg speedWind from/ knotsBaromVisibWave heightAir tempDewpointWater temp
2016-Aug-27 02:20N 33°34' W 118°15'16 2.5
2016-Aug-26 20:11N 33°19' W 118°18'0 0.0
2016-Aug-26 19:31N 33°19' W 118°18'25 4.2
2016-Aug-26 13:31N 33°44' W 118°14'2 1.6
2016-Aug-26 12:06N 33°46' W 118°13'0 0.0
2016-Aug-26 11:32N 33°46' W 118°13'0 0.0
2016-Aug-26 10:33N 33°46' W 118°13'0 0.0
2016-Aug-26 09:30N 33°46' W 118°13'0 0.0
2016-Aug-26 08:32N 33°46' W 118°13'0 0.5
2016-Aug-26 07:34N 33°46' W 118°13'4 3.1
2016-Aug-26 06:22N 33°42' W 118°11'10 5.4
2016-Aug-26 04:33N 33°33' W 118°13'6 5.7
2016-Aug-26 03:33N 33°27' W 118°15'6 6.0
2016-Aug-26 02:30N 33°21' W 118°17'2 1.8
2016-Aug-26 01:12N 33°19' W 118°18'0 0.0
2016-Aug-26 00:18N 33°19' W 118°18'5 1.5
2016-Aug-25 21:11N 33°24' W 118°16'1207331.9
2016-Aug-25 17:33N 29°44' W 095°03'1207181000.1
2016-Aug-25 17:33N 33°46' W 118°13'0 0.0
2016-Aug-25 16:33N 33°46' W 118°13'0 0.0
2016-Aug-25 15:15N 33°46' W 118°13'0 0.0
2016-Aug-25 14:26N 33°46' W 118°13'0 0.0
2016-Aug-25 13:32N 33°46' W 118°13'12071235.1
2016-Aug-25 12:33N 29°44' W 095°03'120710752.4
2016-Aug-25 12:27N 33°46' W 118°13'0 0.0
2016-Aug-25 11:34N 33°46' W 118°13'1207620572.1
2016-Aug-25 11:33N 29°44' W 095°03'0 0.0
2016-Aug-25 10:33N 29°44' W 095°03'12071086001.1
2016-Aug-25 10:33N 33°46' W 118°13'12071207.7
2016-Aug-25 09:33N 29°44' W 095°03'12071085994.5
2016-Aug-25 09:33N 33°46' W 118°13'12041205.6
2016-Aug-25 08:33N 29°46' W 095°05'12044455.5
2016-Aug-25 08:17N 33°46' W 118°13'0 0.0
2016-Aug-25 07:33N 33°46' W 118°13'0 0.0
2016-Aug-25 06:27N 33°46' W 118°13'0 0.0
2016-Aug-25 04:32N 33°46' W 118°13'0 0.0
2016-Aug-25 03:33N 33°46' W 118°13'0 0.0
2016-Aug-25 02:34N 33°46' W 118°13'0 0.0
2016-Aug-25 01:33N 33°46' W 118°13'0 0.0
2016-Aug-25 00:33N 33°46' W 118°13'0 0.0
2016-Aug-24 23:34N 33°46' W 118°13'0 0.0
2016-Aug-24 22:33N 33°46' W 118°13'0 0.0
2016-Aug-24 21:33N 33°46' W 118°13'0 0.0
2016-Aug-24 20:33N 33°46' W 118°13'120018387.2
2016-Aug-24 20:29N 29°45' W 095°10'0 0.4
2016-Aug-24 19:32N 29°45' W 095°10'120132253.9
2016-Aug-24 19:30N 33°46' W 118°13'12011268.6
2016-Aug-24 18:33N 29°45' W 095°10'1201180083.3
2016-Aug-24 18:33N 33°46' W 118°13'12011198.2
2016-Aug-24 17:33N 29°45' W 095°10'1201139419.4
2016-Aug-24 17:32N 33°46' W 118°13'12011221.9
2016-Aug-24 16:33N 29°45' W 095°10'120112140.5
2016-Aug-24 16:28N 33°46' W 118°13'0 0.0
2016-Aug-24 15:31N 33°46' W 118°13'0 0.0
2016-Aug-24 14:32N 33°46' W 118°13'0 0.0
2016-Aug-24 13:29N 33°46' W 118°13'0 0.0
2016-Aug-24 12:33N 33°46' W 118°13'0 0.0
2016-Aug-24 11:33N 33°46' W 118°13'0 0.0
2016-Aug-24 10:33N 33°46' W 118°13'0 0.0
2016-Aug-24 09:33N 33°46' W 118°13'0 0.0
2016-Aug-24 08:33N 33°46' W 118°13'0 0.0
2016-Aug-24 07:33N 33°46' W 118°13'0 0.0
2016-Aug-24 06:33N 33°46' W 118°13'0 0.0
2016-Aug-24 04:33N 33°46' W 118°13'0 0.0
2016-Aug-24 03:33N 33°46' W 118°13'0 0.0
2016-Aug-24 02:33N 33°46' W 118°13'0 0.0
2016-Aug-24 01:33N 33°46' W 118°13'0 0.0
2016-Aug-24 00:33N 33°46' W 118°13'0 0.0
2016-Aug-23 23:33N 33°46' W 118°13'0 0.0
2016-Aug-23 22:33N 33°46' W 118°13'0 0.0
2016-Aug-23 21:33N 33°46' W 118°13'0 0.0
2016-Aug-23 20:33N 33°46' W 118°13'0 0.0
2016-Aug-23 19:33N 33°46' W 118°13'0 0.0
2016-Aug-23 18:33N 33°46' W 118°13'0 0.0
2016-Aug-23 17:33N 33°46' W 118°13'0 0.0
2016-Aug-23 16:33N 33°46' W 118°13'0 0.0
2016-Aug-23 15:33N 33°46' W 118°13'0 0.0
2016-Aug-23 14:33N 33°46' W 118°13'0 0.0
2016-Aug-23 13:33N 33°46' W 118°13'0 0.0
2016-Aug-23 12:33N 33°46' W 118°13'0 0.0
2016-Aug-23 11:28N 33°46' W 118°13'0 0.0
2016-Aug-23 10:33N 33°46' W 118°13'0 0.0
2016-Aug-23 09:33N 33°46' W 118°13'0 0.0
2016-Aug-23 08:33N 33°46' W 118°13'0 0.0
2016-Aug-23 07:33N 33°46' W 118°13'0 0.0
2016-Aug-23 06:31N 33°46' W 118°13'0 0.0
2016-Aug-23 05:33N 33°46' W 118°13'0 0.0
2016-Aug-23 04:33N 33°46' W 118°13'0 0.0
2016-Aug-23 03:33N 33°46' W 118°13'0 0.0
2016-Aug-23 02:33N 33°46' W 118°13'0 0.0
2016-Aug-23 01:33N 33°46' W 118°13'0 0.0
2016-Aug-23 00:33N 33°46' W 118°13'0 0.0
2016-Aug-22 23:33N 33°46' W 118°13'0 0.0
2016-Aug-22 22:33N 33°46' W 118°13'0 0.0
2016-Aug-22 21:33N 33°46' W 118°13'0 0.0
2016-Aug-22 20:33N 33°46' W 118°13'0 0.0
2016-Aug-22 19:33N 33°46' W 118°13'0 0.0
2016-Aug-22 18:33N 33°46' W 118°13'0 0.0
2016-Aug-22 17:33N 33°46' W 118°13'0 0.0
2016-Aug-22 16:33N 33°46' W 118°13'0 0.0
2016-Aug-22 15:33N 33°46' W 118°13'0 0.0
2016-Aug-22 14:33N 33°46' W 118°13'0 0.0
2016-Aug-22 13:33N 33°46' W 118°13'0 0.0
2016-Aug-22 12:33N 33°46' W 118°13'0 0.0
2016-Aug-22 11:33N 33°46' W 118°13'0 0.0
2016-Aug-22 10:33N 33°46' W 118°13'0 0.0
2016-Aug-22 09:33N 33°46' W 118°13'0 0.0
2016-Aug-22 08:33N 33°46' W 118°13'0 0.0
2016-Aug-22 07:33N 33°46' W 118°13'0 0.0
2016-Aug-22 06:33N 33°46' W 118°13'0 0.0
2016-Aug-22 05:33N 33°46' W 118°13'0 0.0
2016-Aug-22 04:33N 33°46' W 118°13'0 0.0
2016-Aug-22 03:33N 33°46' W 118°13'0 0.0
2016-Aug-22 02:32N 33°46' W 118°13'0 0.0
2016-Aug-22 01:33N 33°46' W 118°13'0 0.0
2016-Aug-22 00:33N 33°46' W 118°13'0 0.0
2016-Aug-21 23:33N 33°46' W 118°13'0 0.0
2016-Aug-21 22:33N 33°46' W 118°13'0 0.0
2016-Aug-21 21:33N 33°46' W 118°13'0 0.0
2016-Aug-21 20:32N 33°46' W 118°13'0 0.0
2016-Aug-21 19:33N 33°46' W 118°13'0 0.0
2016-Aug-21 18:33N 33°46' W 118°13'0 0.0
2016-Aug-21 17:33N 33°46' W 118°13'0 0.0
2016-Aug-21 16:33N 33°46' W 118°13'0 0.0
2016-Aug-21 15:33N 33°46' W 118°13'0 0.0
2016-Aug-21 14:33N 33°46' W 118°13'0 0.0
2016-Aug-21 13:23N 33°46' W 118°13'0 0.0
2016-Aug-21 12:33N 33°46' W 118°13'0 0.0
2016-Aug-21 11:33N 33°46' W 118°13'0 0.0
2016-Aug-21 10:33N 33°46' W 118°13'0 0.0
2016-Aug-21 09:33N 33°46' W 118°13'0 0.0
2016-Aug-21 08:33N 33°46' W 118°13'0 0.0
2016-Aug-21 07:33N 33°46' W 118°13'0 0.0
2016-Aug-21 06:33N 33°46' W 118°13'0 0.0
2016-Aug-21 05:33N 33°46' W 118°13'0 0.0
2016-Aug-21 04:33N 33°46' W 118°13'0 0.0
2016-Aug-21 03:33N 33°46' W 118°13'0 0.0
2016-Aug-21 02:33N 33°46' W 118°13'0 0.0
2016-Aug-21 01:34N 33°46' W 118°13'0 0.0
2016-Aug-21 00:33N 33°46' W 118°13'0 0.0
2016-Aug-20 23:33N 33°46' W 118°13'0 0.0
2016-Aug-20 22:33N 33°46' W 118°13'0 0.0
2016-Aug-20 21:30N 33°46' W 118°13'0 0.0
2016-Aug-20 20:33N 33°46' W 118°13'0 0.0
2016-Aug-20 19:33N 33°46' W 118°13'0 0.0
2016-Aug-20 18:31N 33°46' W 118°13'0 0.0
2016-Aug-20 17:33N 33°46' W 118°13'0 0.0
2016-Aug-20 16:33N 33°46' W 118°13'0 0.0
2016-Aug-20 15:33N 33°46' W 118°13'0 0.0
2016-Aug-20 14:33N 33°46' W 118°13'0 0.0
2016-Aug-20 13:33N 33°46' W 118°13'0 0.0
2016-Aug-20 12:32N 33°46' W 118°13'0 0.0
2016-Aug-20 11:33N 33°46' W 118°13'0 0.0
2016-Aug-20 10:32N 33°46' W 118°13'0 0.0
2016-Aug-20 09:33N 33°46' W 118°13'0 0.0
2016-Aug-20 08:33N 33°46' W 118°13'0 0.0
2016-Aug-20 07:28N 33°46' W 118°13'0 0.0
2016-Aug-20 06:33N 33°46' W 118°13'0 0.0
2016-Aug-20 05:26N 33°46' W 118°13'0 0.0
2016-Aug-20 04:14N 33°46' W 118°13'0 0.0
2016-Aug-20 03:26N 33°46' W 118°13'0 0.0
2016-Aug-20 02:33N 33°46' W 118°13'0 0.0
2016-Aug-20 01:32N 33°46' W 118°13'0 0.0
2016-Aug-20 00:33N 33°46' W 118°13'0 0.0
2016-Aug-19 23:33N 33°46' W 118°13'0 0.0
2016-Aug-19 22:33N 33°46' W 118°13'0 0.0
2016-Aug-19 21:33N 33°46' W 118°13'0 0.0
2016-Aug-19 20:33N 33°46' W 118°13'0 0.0
2016-Aug-19 19:33N 33°46' W 118°13'0 0.0
2016-Aug-19 18:33N 33°46' W 118°13'0 0.0
2016-Aug-19 17:33N 33°46' W 118°13'0 0.0
2016-Aug-19 16:33N 33°46' W 118°13'0 0.0
2016-Aug-19 15:33N 33°46' W 118°13'1203123768.2
2016-Aug-19 15:33N 29°47' W 095°06'12031215.1
2016-Aug-19 14:33N 33°46' W 118°13'1203270742.9
2016-Aug-19 14:33N 29°47' W 095°06'12031208.3
2016-Aug-19 13:33N 33°46' W 118°13'120367685.7
2016-Aug-19 13:32N 29°47' W 095°06'12031225.1
2016-Aug-19 12:33N 33°46' W 118°13'1203288792.4
2016-Aug-19 12:33N 29°47' W 095°06'12031208.7
2016-Aug-19 11:33N 33°46' W 118°13'120319963.1
2016-Aug-19 11:30N 29°47' W 095°06'0 0.0
2016-Aug-19 10:34N 29°47' W 095°06'1203866372.7
2016-Aug-19 10:33N 33°46' W 118°13'12031205.3
2016-Aug-19 09:34N 29°47' W 095°06'1203866372.7
2016-Aug-19 09:33N 33°46' W 118°13'0 0.0
2016-Aug-19 08:33N 33°46' W 118°13'1203721977.3
2016-Aug-19 08:33N 29°47' W 095°06'12031205.0
2016-Aug-19 07:33N 33°46' W 118°13'120331851.9
2016-Aug-19 07:31N 29°47' W 095°06'0 0.0
2016-Aug-19 06:34N 29°47' W 095°06'1203866372.7
2016-Aug-19 06:33N 33°46' W 118°13'12031198.3
2016-Aug-19 05:33N 29°47' W 095°06'120340866.6
2016-Aug-19 05:31N 33°46' W 118°13'0 0.0
2016-Aug-19 04:33N 33°46' W 118°13'120377354.7
2016-Aug-19 04:32N 29°47' W 095°06'12031228.9
2016-Aug-19 03:33N 33°46' W 118°13'1203288790.9
2016-Aug-19 03:33N 29°47' W 095°06'12031209.0
2016-Aug-19 02:33N 33°46' W 118°13'1203120329.5
2016-Aug-19 02:33N 29°47' W 095°06'12031215.1
2016-Aug-19 01:33N 33°46' W 118°13'1203180494.3
2016-Aug-19 01:33N 29°47' W 095°06'12031205.0
2016-Aug-19 00:33N 33°46' W 118°13'120337343.7
2016-Aug-19 00:31N 29°47' W 095°06'0 0.0
2016-Aug-18 23:33N 29°47' W 095°06'1203173274.5
2016-Aug-18 23:33N 33°46' W 118°13'0 0.0
2016-Aug-18 22:33N 33°46' W 118°13'120350963.1
2016-Aug-18 22:32N 29°47' W 095°06'12031232.4
2016-Aug-18 21:33N 33°46' W 118°13'120338000.0
2016-Aug-18 21:31N 29°47' W 095°06'12031249.9
2016-Aug-18 20:34N 33°46' W 118°13'0 0.0
2016-Aug-18 19:33N 33°46' W 118°13'12035126.8
2016-Aug-18 19:19N 29°46' W 095°06'0 0.2
2016-Aug-18 18:33N 29°47' W 095°06'120357000.6
2016-Aug-18 18:32N 33°46' W 118°13'0 0.0
2016-Aug-18 17:32N 33°46' W 118°13'1204131348.5
2016-Aug-18 17:32N 29°46' W 095°05'12041236.7
2016-Aug-18 16:33N 33°46' W 118°13'1204866540.7
2016-Aug-18 16:33N 29°45' W 095°06'12041185.4
2016-Aug-18 15:32N 33°46' W 118°13'0 0.0
2016-Aug-18 14:33N 33°46' W 118°13'0 0.0
2016-Aug-18 13:33N 33°46' W 118°13'0 0.0
2016-Aug-18 12:33N 33°46' W 118°13'0 0.0
2016-Aug-18 11:33N 33°46' W 118°13'0 0.0
2016-Aug-18 10:33N 33°46' W 118°13'0 0.0
2016-Aug-18 09:33N 33°46' W 118°13'0 0.0
2016-Aug-18 08:33N 33°46' W 118°13'0 0.0
2016-Aug-18 07:34N 33°46' W 118°13'0 0.0
2016-Aug-18 06:31N 33°46' W 118°13'0 0.0
2016-Aug-18 05:34N 33°46' W 118°13'0 0.0
2016-Aug-18 04:33N 33°46' W 118°13'0 0.0
2016-Aug-18 03:33N 33°46' W 118°13'0 0.0
2016-Aug-18 02:33N 33°46' W 118°13'0 0.0
2016-Aug-18 01:33N 33°46' W 118°13'0 0.0
2016-Aug-18 00:33N 33°46' W 118°13'0 0.0
2016-Aug-17 23:33N 33°46' W 118°13'0 0.0
2016-Aug-17 22:33N 33°46' W 118°13'0 0.0
2016-Aug-17 21:33N 33°46' W 118°13'0 0.0
2016-Aug-17 20:33N 33°46' W 118°13'0 0.0
2016-Aug-17 19:33N 33°46' W 118°13'0 0.0
2016-Aug-17 18:33N 33°46' W 118°13'0 0.0
2016-Aug-17 17:33N 33°46' W 118°13'0 0.0
2016-Aug-17 16:33N 33°46' W 118°13'0 0.0
2016-Aug-17 15:33N 33°46' W 118°13'0 0.0
2016-Aug-17 14:33N 33°46' W 118°13'0 0.0
2016-Aug-17 13:33N 33°46' W 118°13'0 0.0
2016-Aug-17 12:33N 33°46' W 118°13'0 0.0
2016-Aug-17 11:33N 33°46' W 118°13'0 0.0
2016-Aug-17 10:33N 33°46' W 118°13'0 0.0
2016-Aug-17 09:33N 33°46' W 118°13'0 0.0
2016-Aug-17 08:33N 33°46' W 118°13'0 0.0
2016-Aug-17 07:33N 33°46' W 118°13'0 0.0
2016-Aug-17 06:33N 33°46' W 118°13'0 0.0
2016-Aug-17 05:34N 33°46' W 118°13'0 0.0
2016-Aug-17 04:12N 33°46' W 118°13'0 0.0
2016-Aug-17 03:33N 33°46' W 118°13'0 0.0
2016-Aug-17 02:33N 33°46' W 118°13'  

Dump ship's entire track history